createdAt,value
2017-07-08T00:00:02.019Z,79.60
2017-07-08T00:05:03.793Z,80.00
2017-07-08T00:10:05.544Z,79.30
2017-07-08T00:15:07.742Z,77.20
2017-07-08T00:20:10.829Z,78.10
2017-07-08T00:25:12.565Z,78.50
2017-07-08T00:30:14.308Z,78.60
2017-07-08T00:35:16.774Z,77.90
2017-07-08T00:40:18.446Z,77.90
2017-07-08T00:45:20.145Z,77.60
2017-07-08T00:50:22.637Z,78.00
2017-07-08T00:55:25.100Z,78.00
2017-07-08T01:00:26.904Z,78.00
2017-07-08T01:05:29.396Z,78.30
2017-07-08T01:10:31.887Z,78.70
2017-07-08T01:15:34.968Z,76.30
2017-07-08T01:20:36.666Z,76.20
2017-07-08T01:25:38.441Z,76.70
2017-07-08T01:30:40.933Z,80.40
2017-07-08T01:35:43.424Z,80.90
2017-07-08T01:40:45.889Z,83.20
2017-07-08T01:45:47.527Z,83.20
2017-07-08T01:50:49.262Z,82.60
2017-07-08T01:55:51.958Z,86.20
2017-07-08T02:00:54.451Z,85.80
2017-07-08T02:05:56.943Z,81.80
2017-07-08T02:10:59.434Z,82.50
2017-07-08T02:16:01.926Z,86.80
2017-07-08T02:21:05.336Z,86.80
2017-07-08T02:26:07.115Z,86.80
2017-07-08T02:31:09.550Z,89.30
2017-07-08T02:36:11.688Z,89.30
2017-07-08T02:41:30.031Z,94.00
2017-07-08T02:46:47.285Z,93.90
2017-07-08T02:52:03.794Z,95.20
2017-07-08T02:57:20.393Z,96.60
2017-07-08T03:02:22.081Z,99.10
2017-07-08T03:07:38.642Z,98.30
2017-07-08T03:12:55.063Z,92.80
2017-07-08T03:18:11.641Z,96.30
2017-07-08T03:23:13.416Z,98.40
2017-07-08T03:28:15.088Z,93.10
2017-07-08T03:33:16.789Z,98.30
2017-07-08T03:38:19.282Z,96.90
2017-07-08T03:43:20.935Z,96.90
2017-07-08T03:48:22.729Z,99.50
2017-07-08T03:53:25.221Z,98.70
2017-07-08T03:58:27.713Z,96.30
2017-07-08T04:03:30.177Z,96.20
2017-07-08T04:08:31.878Z,96.00
2017-07-08T04:13:34.339Z,87.40
2017-07-08T04:18:36.042Z,87.40
2017-07-08T04:23:38.535Z,85.80
2017-07-08T04:28:41.026Z,85.80
2017-07-08T04:33:42.800Z,85.80
2017-07-08T04:38:45.915Z,79.90
2017-07-08T04:43:48.398Z,78.70
2017-07-08T04:48:51.070Z,81.60
2017-07-08T04:53:53.106Z,81.60
2017-07-08T04:58:54.821Z,81.60
2017-07-08T05:03:56.624Z,81.00
2017-07-08T05:08:59.099Z,79.20
2017-07-08T05:14:00.772Z,77.90
2017-07-08T05:19:02.433Z,73.70
2017-07-08T05:24:04.082Z,74.70
2017-07-08T05:29:05.776Z,72.10
2017-07-08T05:34:22.429Z,70.40
2017-07-08T05:39:24.893Z,71.50
2017-07-08T05:44:26.594Z,71.50
2017-07-08T05:49:29.028Z,70.40
2017-07-08T05:54:30.757Z,70.40
2017-07-08T05:59:32.537Z,73.10
2017-07-08T06:04:35.025Z,77.00
2017-07-08T06:09:37.500Z,73.60
2017-07-08T06:14:39.161Z,73.40
2017-07-08T06:19:40.861Z,77.80
2017-07-08T06:24:43.353Z,68.40
2017-07-08T06:29:45.781Z,65.10
2017-07-08T06:34:47.519Z,65.10
2017-07-08T06:39:50.010Z,62.20
2017-07-08T06:44:52.503Z,60.90
2017-07-08T06:49:54.924Z,58.40
2017-07-08T06:54:56.667Z,58.40
2017-07-08T06:59:59.128Z,57.00
2017-07-08T07:05:01.311Z,56.50
2017-07-08T07:10:03.118Z,60.60
2017-07-08T07:15:05.611Z,59.20
2017-07-08T07:20:08.723Z,62.40
2017-07-08T07:25:11.208Z,60.80
2017-07-08T07:30:13.673Z,58.00
2017-07-08T07:35:15.377Z,57.40
2017-07-08T07:40:17.799Z,54.90
2017-07-08T07:45:19.484Z,54.90
2017-07-08T07:50:21.313Z,53.90
2017-07-08T07:55:24.628Z,55.20
2017-07-08T08:00:27.115Z,55.60
2017-07-08T08:05:29.582Z,55.20
2017-07-08T08:10:31.279Z,54.70
2017-07-08T08:15:33.849Z,51.50
2017-07-08T08:20:51.353Z,50.50
2017-07-08T08:25:53.091Z,54.50
2017-07-08T08:30:55.583Z,53.70
2017-07-08T08:35:58.091Z,54.10
2017-07-08T08:40:59.749Z,54.20
2017-07-08T08:46:01.531Z,48.90
2017-07-08T08:51:03.989Z,50.80
2017-07-08T08:56:05.687Z,50.80
2017-07-08T09:01:09.083Z,47.90
2017-07-08T09:06:11.842Z,47.90
2017-07-08T09:11:13.575Z,45.50
2017-07-08T09:16:16.061Z,42.60
2017-07-08T09:21:17.738Z,42.50
2017-07-08T09:26:20.230Z,43.90
2017-07-08T09:31:22.721Z,45.90
2017-07-08T09:36:24.781Z,45.40
2017-07-08T09:41:26.477Z,44.20
2017-07-08T09:46:28.970Z,44.60
2017-07-08T09:51:31.461Z,40.70
2017-07-08T09:56:33.954Z,42.50
2017-07-08T10:01:36.445Z,42.90
2017-07-08T10:06:38.220Z,42.70
2017-07-08T10:11:40.648Z,41.20
2017-07-08T10:16:42.386Z,41.30
2017-07-08T10:21:44.878Z,42.60
2017-07-08T10:26:47.370Z,40.70
2017-07-08T10:31:49.146Z,40.70
2017-07-08T10:36:51.637Z,43.50
2017-07-08T10:41:54.130Z,42.60
2017-07-08T10:47:11.544Z,44.10
2017-07-08T10:52:13.245Z,44.00
2017-07-08T10:57:15.224Z,42.10
2017-07-08T11:02:17.719Z,38.80
2017-07-08T11:07:20.133Z,38.20
2017-07-08T11:12:21.886Z,38.20
2017-07-08T11:17:24.578Z,42.90
2017-07-08T11:22:27.070Z,43.30
2017-07-08T11:27:28.846Z,42.50
2017-07-08T11:32:31.339Z,42.50
2017-07-08T11:37:33.799Z,43.80
2017-07-08T11:42:35.606Z,43.80
2017-07-08T11:47:38.097Z,40.80
2017-07-08T11:52:40.589Z,39.90
2017-07-08T11:57:43.288Z,38.90
2017-07-08T12:02:45.747Z,38.30
2017-07-08T12:07:47.452Z,38.20
2017-07-08T12:12:49.944Z,39.60
2017-07-08T12:17:52.436Z,39.50
2017-07-08T12:22:54.851Z,38.20
2017-07-08T12:27:56.573Z,38.20
2017-07-08T12:32:58.274Z,39.70
2017-07-08T12:38:00.767Z,38.90
2017-07-08T12:43:03.261Z,38.40
2017-07-08T12:48:05.036Z,38.50
2017-07-08T12:53:07.526Z,38.80
2017-07-08T12:58:10.019Z,36.70
2017-07-08T13:03:12.480Z,39.40
2017-07-08T13:08:14.181Z,39.50
2017-07-08T13:13:16.676Z,37.40
2017-07-08T13:18:19.141Z,37.10
2017-07-08T13:23:20.815Z,37.10
2017-07-08T13:28:22.516Z,37.90
2017-07-08T13:33:24.936Z,39.00
2017-07-08T13:38:26.778Z,39.00
2017-07-08T13:43:29.271Z,36.50
2017-07-08T13:48:31.056Z,35.60
2017-07-08T13:53:32.722Z,37.90
2017-07-08T13:58:35.145Z,35.70
2017-07-08T14:03:36.835Z,35.70
2017-07-08T14:08:38.659Z,35.40
2017-07-08T14:13:41.150Z,35.50
2017-07-08T14:18:42.925Z,35.40
2017-07-08T14:23:45.417Z,33.40
2017-07-08T14:28:47.909Z,35.40
2017-07-08T14:33:51.369Z,34.40
2017-07-08T14:38:53.172Z,34.30
2017-07-08T14:43:54.873Z,33.80
2017-07-08T14:48:56.621Z,34.80
2017-07-08T14:53:58.320Z,34.00
2017-07-08T14:59:00.788Z,34.70
2017-07-08T15:04:17.511Z,34.70
2017-07-08T15:09:19.187Z,33.70
2017-07-08T15:14:20.818Z,33.60
2017-07-08T15:19:22.528Z,35.60
2017-07-08T15:24:24.897Z,34.70
2017-07-08T15:29:26.723Z,35.80
2017-07-08T15:34:30.875Z,33.60
2017-07-08T15:39:32.731Z,33.10
2017-07-08T15:44:35.199Z,33.20
2017-07-08T15:49:36.898Z,33.30
2017-07-08T15:54:39.748Z,35.60
2017-07-08T15:59:41.576Z,35.60
2017-07-08T16:04:44.602Z,34.50
2017-07-08T16:09:46.326Z,34.50
2017-07-08T16:14:48.026Z,33.80
2017-07-08T16:19:50.516Z,35.20
2017-07-08T16:24:52.981Z,33.60
2017-07-08T16:29:54.682Z,33.60
2017-07-08T16:34:57.175Z,34.80
2017-07-08T16:39:58.948Z,34.10
2017-07-08T16:45:01.417Z,33.10
2017-07-08T16:50:03.113Z,33.00
2017-07-08T16:55:06.963Z,32.30
2017-07-08T17:00:08.553Z,31.90
2017-07-08T17:05:10.361Z,32.30
2017-07-08T17:10:13.245Z,35.10
2017-07-08T17:15:15.062Z,34.00
2017-07-08T17:20:17.556Z,33.80
2017-07-08T17:25:20.047Z,34.00
2017-07-08T17:30:21.821Z,33.90
2017-07-08T17:35:23.596Z,33.60
2017-07-08T17:40:26.472Z,35.70
2017-07-08T17:45:28.275Z,35.70
2017-07-08T17:50:31.225Z,35.70
2017-07-08T17:55:33.874Z,35.60
2017-07-08T18:00:36.366Z,36.30
2017-07-08T18:05:38.858Z,36.10
2017-07-08T18:10:41.350Z,37.30
2017-07-08T18:15:43.843Z,38.30
2017-07-08T18:20:48.419Z,40.00
2017-07-08T18:25:51.621Z,39.40
2017-07-08T18:30:55.215Z,40.50
2017-07-08T18:35:59.190Z,40.50
2017-07-08T18:41:03.125Z,40.00
2017-07-08T18:46:05.553Z,40.10
2017-07-08T18:51:08.772Z,39.80
2017-07-08T18:56:11.125Z,40.70
2017-07-08T19:01:17.528Z,40.60
2017-07-08T19:06:21.573Z,41.20
2017-07-08T19:11:24.156Z,41.50
2017-07-08T19:16:29.634Z,41.80
2017-07-08T19:21:33.617Z,42.30
2017-07-08T19:26:36.594Z,42.70
2017-07-08T19:31:39.753Z,43.20
2017-07-08T19:36:42.672Z,44.50
2017-07-08T19:41:47.046Z,45.30
2017-07-08T19:46:51.009Z,46.00
2017-07-08T19:51:55.087Z,46.40
2017-07-08T19:56:59.014Z,47.10
2017-07-08T20:02:00.957Z,47.80
2017-07-08T20:07:03.825Z,48.10
2017-07-08T20:12:06.453Z,48.70
2017-07-08T20:17:09.449Z,48.60
2017-07-08T20:22:11.129Z,48.70
2017-07-08T20:27:13.624Z,49.00
2017-07-08T20:32:16.587Z,49.10
2017-07-08T20:37:18.328Z,49.10
2017-07-08T20:42:19.972Z,49.40
2017-07-08T20:47:22.999Z,51.20
2017-07-08T20:52:26.117Z,51.20
2017-07-08T20:57:27.855Z,50.80
2017-07-08T21:02:30.368Z,52.20
2017-07-08T21:07:32.021Z,51.30
2017-07-08T21:12:36.092Z,52.50
2017-07-08T21:17:37.825Z,52.50
2017-07-08T21:22:40.288Z,55.00
2017-07-08T21:27:41.961Z,54.90
2017-07-08T21:32:43.842Z,55.20
2017-07-08T21:37:45.517Z,55.00
2017-07-08T21:42:47.185Z,56.40
2017-07-08T21:47:48.886Z,57.80
2017-07-08T21:52:51.378Z,57.80
2017-07-08T21:57:53.874Z,57.80
2017-07-08T22:02:55.578Z,57.80
2017-07-08T22:07:57.422Z,61.60
2017-07-08T22:12:59.913Z,65.00
2017-07-08T22:18:07.537Z,64.10
2017-07-08T22:23:09.991Z,64.20
2017-07-08T22:28:11.689Z,64.10
2017-07-08T22:33:14.153Z,64.00
2017-07-08T23:58:22.423Z,63.50
